»·PEaware :: UAL576 KMFR-KBUR

UAL576 :: KMFR-KBUR

FLIGHT INFORMATION

Flight Status: Arrived
Operator:
United Airlines
More flights by this operator :: More flights under this callsign
Pilot: Anonymous 8274 (8274)
Aircraft: BOEING 737-200
(B732)
More flights by this aircraft type
Origin: KMFR Rogue Valley Intl-Medford
United States
Destination: KBUR Bob Hope-Burbank
United States
More flights between these airports :: More routes between these airports
Route: +BRUTE7 HANDY J126 ROBIE J6 AVE FERN7
File this flight plan on PilotEdge
Remarks:
Altitude:
(Current/Filed)
30,000ft
Speed:
(Current/Filed)
460kts
Departed: 10-Jul-18 08:32 PM
Arrived: 10-Jul-18 10:07 PM
Distance/Time
Traveled:
535nm/1:35
Distance/Time
To Go:
Arrived

Flight Plot

Page will automatically refresh every two minutes.

Flight plan parsing failed; only flown route is shown


Map Options




Map Legend


Flown Route
Filed Route
Departure Airport
Arrival Airport
Navaid (VOR, NDB)
Fix

Horizontal Profiles

Position Reports

Time Latitude Longitude Heading Altitude Ground
Speed
10-Jul-18 20:06 45.590522 -122.595027 28 38ft 0kts
10-Jul-18 20:07 45.590522 -122.595027 28 38ft 0kts
10-Jul-18 20:11 42.368044 -122.872759 190 1323ft 0kts
10-Jul-18 20:12 42.368044 -122.872759 190 1323ft 0kts
10-Jul-18 20:13 42.368044 -122.872759 190 1323ft 0kts
10-Jul-18 20:14 42.368044 -122.872759 190 1323ft 0kts
10-Jul-18 20:15 42.368044 -122.872759 190 1323ft 0kts
10-Jul-18 20:16 42.368044 -122.872759 190 1323ft 0kts
10-Jul-18 20:17 42.368044 -122.872759 190 1323ft 0kts
10-Jul-18 20:18 42.368044 -122.872759 190 1323ft 0kts
10-Jul-18 20:19 42.368044 -122.872759 190 1323ft 0kts
10-Jul-18 20:20 42.368044 -122.872759 190 1323ft 0kts
10-Jul-18 20:21 42.368280 -122.872702 190 1323ft 2kts
10-Jul-18 20:22 42.368797 -122.872701 130 1323ft 2kts
10-Jul-18 20:23 42.368834 -122.872778 118 1323ft 0kts
10-Jul-18 20:24 42.368834 -122.872778 118 1323ft 0kts
10-Jul-18 20:25 42.368834 -122.872778 118 1323ft 0kts
10-Jul-18 20:26 42.368834 -122.872778 118 1323ft 0kts
10-Jul-18 20:27 42.368834 -122.872778 118 1323ft 0kts
10-Jul-18 20:28 42.367440 -122.870916 158 1323ft 13kts
10-Jul-18 20:29 42.363690 -122.868886 130 1323ft 9kts
10-Jul-18 20:30 42.363598 -122.868620 96 1323ft 0kts
10-Jul-18 20:31 42.363665 -122.868129 69 1323ft 6kts
10-Jul-18 20:32 42.364231 -122.867630 338 1323ft 0kts
10-Jul-18 20:33 42.370156 -122.870753 338 1324ft 110kts
10-Jul-18 20:34 42.409017 -122.890386 359 2891ft 160kts
10-Jul-18 20:35 42.433507 -122.829623 74 4531ft 229kts
10-Jul-18 20:36 42.418327 -122.743369 117 6895ft 269kts
10-Jul-18 20:37 42.381412 -122.649638 117 9316ft 294kts
10-Jul-18 20:38 42.312757 -122.617221 212 11670ft 299kts
10-Jul-18 20:39 42.256620 -122.698571 242 14026ft 301kts
10-Jul-18 20:40 42.228001 -122.804578 255 16160ft 306kts
10-Jul-18 20:41 42.163362 -122.865952 173 17578ft 342kts
10-Jul-18 20:42 42.079659 -122.789742 147 18603ft 376kts
10-Jul-18 20:43 41.981136 -122.751408 173 20030ft 376kts
10-Jul-18 20:44 41.882419 -122.730456 173 21287ft 382kts
10-Jul-18 20:45 41.777683 -122.708261 173 22481ft 388kts
10-Jul-18 20:46 41.670503 -122.685515 173 23570ft 394kts
10-Jul-18 20:47 41.562696 -122.653508 168 24515ft 402kts
10-Jul-18 20:48 41.453561 -122.617252 168 25354ft 407kts
10-Jul-18 20:49 41.343182 -122.580883 168 26126ft 412kts
10-Jul-18 20:50 41.231538 -122.544377 168 26814ft 417kts
10-Jul-18 20:51 41.118474 -122.507670 168 27457ft 421kts
10-Jul-18 20:52 41.003941 -122.477514 172 28031ft 424kts
10-Jul-18 20:53 40.893536 -122.452770 172 28579ft 427kts
10-Jul-18 20:54 40.776827 -122.426794 172 29113ft 429kts
10-Jul-18 20:55 40.658418 -122.400638 172 29480ft 435kts
10-Jul-18 20:56 40.538781 -122.374399 172 29823ft 439kts
10-Jul-18 20:57 40.422451 -122.330547 163 30148ft 443kts
10-Jul-18 20:58 40.305483 -122.284224 169 30474ft 443kts
10-Jul-18 20:59 40.183804 -122.259477 172 30761ft 444kts
10-Jul-18 21:00 40.065036 -122.214808 159 30912ft 451kts
10-Jul-18 21:01 39.948731 -122.156696 164 30916ft 447kts
10-Jul-18 21:02 39.837538 -122.115011 168 30914ft 444kts
10-Jul-18 21:03 39.723036 -122.076637 163 30913ft 443kts
10-Jul-18 21:04 39.606195 -122.028013 163 30913ft 442kts
10-Jul-18 21:05 39.489690 -121.979492 163 30912ft 441kts
10-Jul-18 21:06 39.372889 -121.930834 163 30913ft 440kts
10-Jul-18 21:07 39.256958 -121.882520 163 30912ft 440kts
10-Jul-18 21:08 39.140992 -121.834250 163 30915ft 440kts
10-Jul-18 21:09 39.025182 -121.785962 163 30912ft 439kts
10-Jul-18 21:10 38.909022 -121.739185 164 30913ft 439kts
10-Jul-18 21:11 38.805490 -121.701116 164 30914ft 439kts
10-Jul-18 21:12 38.689421 -121.657615 162 30914ft 439kts
10-Jul-18 21:13 38.575997 -121.601852 157 30914ft 440kts
10-Jul-18 21:14 38.464745 -121.541161 157 30940ft 440kts
10-Jul-18 21:15 38.347805 -121.519975 188 30951ft 434kts
10-Jul-18 21:16 38.228529 -121.540881 190 30948ft 437kts
10-Jul-18 21:17 38.107606 -121.558277 182 31010ft 440kts
10-Jul-18 21:18 37.986369 -121.561823 181 31064ft 438kts
10-Jul-18 21:19 37.871144 -121.565099 181 30888ft 441kts
10-Jul-18 21:20 37.749304 -121.568517 181 30924ft 439kts
10-Jul-18 21:21 37.628434 -121.571804 181 30940ft 438kts
10-Jul-18 21:22 37.507129 -121.575032 182 30940ft 438kts
10-Jul-18 21:23 37.386066 -121.583132 183 30943ft 438kts
10-Jul-18 21:24 37.265835 -121.591426 182 30993ft 437kts
10-Jul-18 21:25 37.144582 -121.592110 180 31018ft 436kts
10-Jul-18 21:26 37.023739 -121.592337 180 31021ft 436kts
10-Jul-18 21:27 36.902598 -121.595660 184 31021ft 436kts
10-Jul-18 21:28 36.788129 -121.605792 184 31047ft 435kts
10-Jul-18 21:29 36.667243 -121.600099 176 31049ft 436kts
10-Jul-18 21:30 36.571751 -121.523009 134 31050ft 441kts
10-Jul-18 21:31 36.477896 -121.428656 145 31047ft 440kts
10-Jul-18 21:32 36.373598 -121.351217 150 31049ft 439kts
10-Jul-18 21:33 36.271246 -121.270921 144 31052ft 441kts
10-Jul-18 21:34 36.174073 -121.179070 143 31032ft 441kts
10-Jul-18 21:35 36.083832 -121.093757 143 30993ft 442kts
10-Jul-18 21:36 35.985330 -121.003993 137 30980ft 443kts
10-Jul-18 21:37 35.935576 -120.866538 108 30994ft 445kts
10-Jul-18 21:38 35.897767 -120.730775 110 30994ft 445kts
10-Jul-18 21:39 35.855252 -120.592553 113 30995ft 445kts
10-Jul-18 21:40 35.807789 -120.451798 113 30996ft 446kts
10-Jul-18 21:41 35.760391 -120.314091 115 30995ft 447kts
10-Jul-18 21:42 35.709911 -120.176545 113 30986ft 447kts
10-Jul-18 21:43 35.664222 -120.034106 112 30940ft 449kts
10-Jul-18 21:44 35.599144 -119.907851 145 30962ft 442kts
10-Jul-18 21:45 35.498858 -119.833635 151 30935ft 443kts
10-Jul-18 21:46 35.390844 -119.758960 150 30109ft 449kts
10-Jul-18 21:47 35.292374 -119.670515 143 27820ft 432kts
10-Jul-18 21:48 35.199322 -119.585679 146 25957ft 406kts
10-Jul-18 21:49 35.107000 -119.512407 146 23779ft 392kts
10-Jul-18 21:50 35.016638 -119.442433 144 21589ft 379kts
10-Jul-18 21:51 34.929991 -119.373009 144 19452ft 368kts
10-Jul-18 21:52 34.857357 -119.314028 144 17663ft 358kts
10-Jul-18 21:53 34.783188 -119.247044 142 15708ft 349kts
10-Jul-18 21:54 34.708059 -119.171195 143 13239ft 355kts
10-Jul-18 21:55 34.626311 -119.105015 148 11195ft 350kts
10-Jul-18 21:56 34.551600 -119.046130 148 11153ft 304kts
10-Jul-18 21:57 34.483536 -118.991813 148 11149ft 285kts
10-Jul-18 21:58 34.420956 -118.933143 140 10007ft 277kts
10-Jul-18 21:59 34.388505 -118.852745 110 9002ft 263kts
10-Jul-18 22:00 34.362109 -118.770646 110 7625ft 263kts
10-Jul-18 22:01 34.343297 -118.686679 95 6306ft 261kts
10-Jul-18 22:02 34.333437 -118.600400 99 5090ft 255kts
10-Jul-18 22:03 34.322296 -118.523562 99 5027ft 199kts
10-Jul-18 22:04 34.305871 -118.461815 113 4703ft 187kts
10-Jul-18 22:05 34.285173 -118.409373 113 3606ft 155kts
10-Jul-18 22:06 34.260768 -118.373955 161 2193ft 139kts
10-Jul-18 22:07 34.223610 -118.363535 164 1117ft 135kts
10-Jul-18 22:08 34.195689 -118.355886 166 739ft 17kts
10-Jul-18 22:09 34.195451 -118.355406 49 739ft 10kts
10-Jul-18 22:10 34.216107 -118.361468 166 925ft 134kts
10-Jul-18 22:11 34.196002 -118.355969 167 739ft 27kts
10-Jul-18 22:12 34.214926 -118.361151 165 897ft 134kts
10-Jul-18 22:13 34.205422 -118.358551 165 740ft 123kts
10-Jul-18 22:14 34.213827 -118.360860 166 871ft 134kts
10-Jul-18 22:15 34.276299 -118.387401 119 2845ft 147kts
10-Jul-18 22:16 34.275066 -118.385037 125 2748ft 146kts
10-Jul-18 22:17 34.239860 -118.367998 165 1546ft 138kts
10-Jul-18 22:18 34.203801 -118.358104 165 740ft 114kts
10-Jul-18 22:19 34.237722 -118.367429 165 1480ft 138kts
10-Jul-18 22:20 34.201917 -118.357578 166 739ft 106kts
10-Jul-18 22:21 34.196726 -118.355546 346 739ft 10kts
10-Jul-18 22:22 34.197113 -118.355525 28 739ft 2kts

Navigation Log

Ident Type
Flight plan parsing failed, navigation log unavailable